createdAt,value
2018-05-11T00:00:32.233Z,101329.92
2018-05-11T00:02:59.898Z,101333.83
2018-05-11T00:05:27.562Z,101335.57
2018-05-11T00:07:55.226Z,101336.88
2018-05-11T00:10:22.866Z,101332.09
2018-05-11T00:12:50.546Z,101341.69
2018-05-11T00:15:18.212Z,101346.06
2018-05-11T00:17:45.823Z,101357.41
2018-05-11T00:20:13.466Z,101362.21
2018-05-11T00:22:41.191Z,101363.11
2018-05-11T00:25:08.858Z,101370.98
2018-05-11T00:27:36.523Z,101373.16
2018-05-11T00:30:04.187Z,101381.47
2018-05-11T00:32:31.803Z,101385.41
2018-05-11T00:34:59.438Z,101381.91
2018-05-11T00:37:27.051Z,101377.11
2018-05-11T00:39:54.687Z,101380.64
2018-05-11T00:42:22.397Z,101384.16
2018-05-11T00:44:50.027Z,101390.30
2018-05-11T00:47:17.650Z,101389.45
2018-05-11T00:49:45.378Z,101392.48
2018-05-11T00:52:13.040Z,101405.18
2018-05-11T00:54:40.681Z,101410.02
2018-05-11T00:57:08.299Z,101430.99
2018-05-11T00:59:35.934Z,101442.78
2018-05-11T01:02:03.588Z,101448.05
2018-05-11T01:04:31.255Z,101452.42
2018-05-11T01:06:58.922Z,101458.55
2018-05-11T01:09:26.573Z,101472.53
2018-05-11T01:11:54.242Z,101476.02
2018-05-11T01:14:21.854Z,101483.86
2018-05-11T01:16:49.557Z,101490.41
2018-05-11T01:19:17.226Z,101490.41
2018-05-11T01:21:44.885Z,101498.73
2018-05-11T01:24:13.002Z,101504.83
2018-05-11T01:26:40.634Z,101504.84
2018-05-11T01:29:08.250Z,101510.51
2018-05-11T01:31:35.954Z,101510.53
2018-05-11T01:34:03.566Z,101517.08
2018-05-11T01:36:31.206Z,101518.81
2018-05-11T01:39:00.434Z,101525.34
2018-05-11T01:41:28.070Z,101538.44
2018-05-11T01:43:55.677Z,101546.31
2018-05-11T01:46:23.319Z,101547.62
2018-05-11T01:48:51.081Z,101541.09
2018-05-11T01:51:18.678Z,101545.01
2018-05-11T01:53:46.346Z,101548.50
2018-05-11T01:56:14.011Z,101551.55
2018-05-11T01:58:41.631Z,101549.76
2018-05-11T02:01:09.271Z,101549.77
2018-05-11T02:03:36.895Z,101552.81
2018-05-11T02:06:04.550Z,101554.97
2018-05-11T02:08:32.170Z,101550.17
2018-05-11T02:10:59.810Z,101554.96
2018-05-11T02:13:27.443Z,101558.90
2018-05-11T02:15:55.167Z,101558.86
2018-05-11T02:18:22.759Z,101565.42
2018-05-11T02:20:50.396Z,101572.37
2018-05-11T02:23:18.015Z,101579.73
2018-05-11T02:25:45.751Z,101587.56
2018-05-11T02:28:13.415Z,101604.09
2018-05-11T02:30:41.070Z,101605.33
2018-05-11T02:33:08.740Z,101608.79
2018-05-11T02:35:36.407Z,101609.66
2018-05-11T02:38:04.043Z,101613.13
2018-05-11T02:40:31.659Z,101613.55
2018-05-11T02:42:59.303Z,101614.38
2018-05-11T02:45:26.963Z,101614.78
2018-05-11T02:47:54.715Z,101617.80
2018-05-11T02:50:22.334Z,101624.30
2018-05-11T02:52:49.971Z,101626.41
2018-05-11T02:55:17.716Z,101624.19
2018-05-11T02:57:45.470Z,101627.66
2018-05-11T03:00:13.082Z,101630.69
2018-05-11T03:02:40.787Z,101638.91
2018-05-11T03:05:08.403Z,101641.08
2018-05-11T03:07:36.048Z,101641.95
2018-05-11T03:10:03.668Z,101633.63
2018-05-11T03:12:31.307Z,101638.39
2018-05-11T03:14:58.999Z,101642.73
2018-05-11T03:17:26.663Z,101641.40
2018-05-11T03:19:54.326Z,101647.04
2018-05-11T03:22:21.967Z,101651.34
2018-05-11T03:24:49.610Z,101655.27
2018-05-11T03:27:17.314Z,101653.06
2018-05-11T03:29:44.979Z,101660.45
2018-05-11T03:32:12.617Z,101652.58
2018-05-11T03:34:40.242Z,101662.14
2018-05-11T03:37:07.882Z,101662.55
2018-05-11T03:39:35.503Z,101673.84
2018-05-11T03:42:03.171Z,101672.51
2018-05-11T03:44:31.503Z,101665.52
2018-05-11T03:46:59.226Z,101668.53
2018-05-11T03:49:26.891Z,101660.20
2018-05-11T03:51:54.507Z,101673.65
2018-05-11T03:54:22.151Z,101677.06
2018-05-11T03:56:49.875Z,101676.17
2018-05-11T03:59:17.539Z,101688.77
2018-05-11T04:01:56.819Z,101685.72
2018-05-11T04:04:36.211Z,101682.23
2018-05-11T04:07:15.655Z,101680.93
2018-05-11T04:09:43.297Z,101689.14
2018-05-11T04:12:10.938Z,101688.70
2018-05-11T04:14:38.600Z,101696.47
2018-05-11T04:19:33.271Z,101691.16
2018-05-11T04:22:00.903Z,101700.70
2018-05-11T04:24:28.544Z,101698.89
2018-05-11T04:26:56.231Z,101694.94
2018-05-11T04:29:23.867Z,101693.20
2018-05-11T04:31:51.485Z,101694.06
2018-05-11T04:34:19.122Z,101695.81
2018-05-11T04:36:46.775Z,101698.86
2018-05-11T04:39:14.438Z,101698.38
2018-05-11T04:41:42.055Z,101694.47
2018-05-11T04:44:09.763Z,101697.02
2018-05-11T04:46:37.427Z,101696.58
2018-05-11T04:49:05.185Z,101698.72
2018-05-11T04:51:32.850Z,101701.77
2018-05-11T04:54:00.504Z,101698.28
2018-05-11T04:56:28.123Z,101709.59
2018-05-11T04:58:55.742Z,101705.68
2018-05-11T05:01:23.406Z,101708.73
2018-05-11T05:03:51.023Z,101706.95
2018-05-11T05:06:18.727Z,101706.08
2018-05-11T05:08:46.392Z,101716.09
2018-05-11T05:11:14.051Z,101715.66
2018-05-11T05:13:41.719Z,101723.88
2018-05-11T05:16:09.361Z,101718.63
2018-05-11T05:18:36.979Z,101714.67
2018-05-11T05:21:04.699Z,101719.86
2018-05-11T05:23:32.315Z,101717.65
2018-05-11T05:25:59.954Z,101723.27
2018-05-11T05:28:27.567Z,101729.78
2018-05-11T05:30:55.248Z,101729.31
2018-05-11T05:33:22.911Z,101732.77
2018-05-11T05:35:50.550Z,101732.32
2018-05-11T05:38:18.162Z,101734.90
2018-05-11T05:40:45.799Z,101741.02
2018-05-11T05:43:13.422Z,101747.52
2018-05-11T05:45:41.076Z,101744.06
2018-05-11T05:48:08.691Z,101751.94
2018-05-11T05:50:36.437Z,101746.72
2018-05-11T05:53:04.052Z,101744.14
2018-05-11T05:55:31.690Z,101746.80
2018-05-11T05:57:59.307Z,101748.57
2018-05-11T06:00:26.944Z,101751.66
2018-05-11T06:02:54.558Z,101749.95
2018-05-11T06:05:22.309Z,101756.13
2018-05-11T06:07:49.983Z,101757.47
2018-05-11T06:10:17.598Z,101766.23
2018-05-11T06:12:45.377Z,101771.10
2018-05-11T06:15:13.007Z,101772.05
2018-05-11T06:17:40.758Z,101771.68
2018-05-11T06:20:08.395Z,101777.34
2018-05-11T06:22:36.034Z,101783.47
2018-05-11T06:25:03.718Z,101784.38
2018-05-11T06:27:31.499Z,101784.41
2018-05-11T06:29:59.115Z,101780.53
2018-05-11T06:32:26.806Z,101782.78
2018-05-11T06:34:54.471Z,101791.92
2018-05-11T06:37:22.112Z,101789.30
2018-05-11T06:39:49.727Z,101789.27
2018-05-11T06:42:17.372Z,101781.03
2018-05-11T06:44:44.995Z,101786.33
2018-05-11T06:47:12.631Z,101794.64
2018-05-11T06:49:40.339Z,101791.62
2018-05-11T06:52:07.983Z,101792.53
2018-05-11T06:54:35.597Z,101792.13
2018-05-11T06:57:03.235Z,101796.08
2018-05-11T06:59:30.887Z,101797.86
2018-05-11T07:01:58.523Z,101786.59
2018-05-11T07:04:26.207Z,101786.70
2018-05-11T07:06:53.843Z,101791.08
2018-05-11T07:09:21.467Z,101793.32
2018-05-11T07:11:49.110Z,101798.15
2018-05-11T07:14:16.762Z,101800.36
2018-05-11T07:16:44.423Z,101803.47
2018-05-11T07:19:12.039Z,101804.77
2018-05-11T07:21:39.744Z,101803.47
2018-05-11T07:24:07.411Z,101802.19
2018-05-11T07:26:35.071Z,101808.76
2018-05-11T07:29:02.744Z,101805.27
2018-05-11T07:31:30.361Z,101804.86
2018-05-11T07:33:58.051Z,101805.36
2018-05-11T07:36:25.668Z,101809.75
2018-05-11T07:38:53.303Z,101807.13
2018-05-11T07:41:20.923Z,101811.05
2018-05-11T07:43:48.568Z,101806.27
2018-05-11T07:46:16.288Z,101807.59
2018-05-11T07:48:44.075Z,101816.84
2018-05-11T07:51:11.694Z,101812.94
2018-05-11T07:53:39.327Z,101809.08
2018-05-11T07:56:06.944Z,101812.16
2018-05-11T07:58:34.578Z,101819.13
2018-05-11T08:01:02.243Z,101818.70
2018-05-11T08:03:29.907Z,101827.05
2018-05-11T08:05:57.567Z,101821.40
2018-05-11T08:08:25.206Z,101825.81
2018-05-11T08:10:52.890Z,101824.12
2018-05-11T08:13:20.555Z,101833.33
2018-05-11T08:15:48.171Z,101833.38
2018-05-11T08:18:15.883Z,101828.20
2018-05-11T08:20:43.503Z,101830.41
2018-05-11T08:23:11.206Z,101825.17
2018-05-11T08:25:38.823Z,101825.63
2018-05-11T08:28:06.470Z,101830.45
2018-05-11T08:30:34.083Z,101823.06
2018-05-11T08:33:01.719Z,101822.65
2018-05-11T08:35:29.331Z,101832.73
2018-05-11T08:37:56.966Z,101824.47
2018-05-11T08:40:24.603Z,101823.61
2018-05-11T08:42:52.226Z,101830.62
2018-05-11T08:45:19.963Z,101823.64
2018-05-11T08:47:47.627Z,101827.13
2018-05-11T08:50:15.255Z,101828.02
2018-05-11T08:52:42.951Z,101826.70
2018-05-11T08:55:10.578Z,101831.11
2018-05-11T08:57:38.272Z,101833.32
2018-05-11T09:00:05.903Z,101837.27
2018-05-11T09:02:33.524Z,101842.50
2018-05-11T09:05:01.159Z,101847.33
2018-05-11T09:07:28.770Z,101853.02
2018-05-11T09:09:56.483Z,101853.89
2018-05-11T09:12:24.091Z,101859.13
2018-05-11T09:14:51.803Z,101867.02
2018-05-11T09:17:19.415Z,101862.65
2018-05-11T09:19:47.046Z,101872.70
2018-05-11T09:22:14.659Z,101874.04
2018-05-11T09:24:42.360Z,101882.77
2018-05-11T09:27:10.015Z,101886.24
2018-05-11T09:29:37.647Z,101888.87
2018-05-11T09:32:05.348Z,101890.13
2018-05-11T09:34:33.019Z,101891.85
2018-05-11T09:37:00.634Z,101894.45
2018-05-11T09:39:28.301Z,101897.06
2018-05-11T09:41:55.999Z,101894.06
2018-05-11T09:44:23.659Z,101895.41
2018-05-11T09:46:51.271Z,101901.55
2018-05-11T09:49:18.981Z,101896.30
2018-05-11T09:51:46.594Z,101903.31
2018-05-11T09:54:14.209Z,101911.14
2018-05-11T09:56:41.839Z,101909.86
2018-05-11T09:59:09.454Z,101910.31
2018-05-11T10:01:37.302Z,101913.81
2018-05-11T10:04:04.867Z,101915.13
2018-05-11T10:06:32.618Z,101919.95
2018-05-11T10:09:00.237Z,101919.97
2018-05-11T10:11:27.874Z,101914.78
2018-05-11T10:13:55.637Z,101917.84
2018-05-11T10:16:23.267Z,101917.00
2018-05-11T10:18:50.879Z,101927.48
2018-05-11T10:21:18.522Z,101923.55
2018-05-11T10:23:46.154Z,101933.59
2018-05-11T10:26:13.796Z,101940.12
2018-05-11T10:28:41.431Z,101936.63
2018-05-11T10:31:09.071Z,101938.37
2018-05-11T10:33:36.803Z,101937.11
2018-05-11T10:36:04.438Z,101943.27
2018-05-11T10:38:32.059Z,101945.94
2018-05-11T10:40:59.705Z,101943.77
2018-05-11T10:43:27.351Z,101950.75
2018-05-11T10:45:55.012Z,101951.19
2018-05-11T10:48:22.678Z,101948.13
2018-05-11T10:50:50.327Z,101947.70
2018-05-11T10:53:17.943Z,101950.25
2018-05-11T10:55:45.664Z,101948.92
2018-05-11T10:58:13.418Z,101949.38
2018-05-11T11:00:41.059Z,101950.31
2018-05-11T11:03:08.948Z,101949.88
2018-05-11T11:05:36.726Z,101954.67
2018-05-11T11:08:04.374Z,101950.34
2018-05-11T11:10:32.052Z,101958.22
2018-05-11T11:12:59.696Z,101957.80
2018-05-11T11:15:27.332Z,101956.07
2018-05-11T11:17:54.971Z,101949.99
2018-05-11T11:20:22.591Z,101950.86
2018-05-11T11:22:50.258Z,101958.30
2018-05-11T11:25:17.920Z,101956.53
2018-05-11T11:27:45.559Z,101954.77
2018-05-11T11:30:13.247Z,101953.89
2018-05-11T11:32:40.902Z,101948.20
2018-05-11T11:35:08.570Z,101943.87
2018-05-11T11:37:36.324Z,101944.77
2018-05-11T11:40:03.999Z,101944.78
2018-05-11T11:42:31.635Z,101945.67
2018-05-11T11:44:59.262Z,101940.42
2018-05-11T11:47:27.023Z,101943.94
2018-05-11T11:49:54.626Z,101946.13
2018-05-11T11:52:22.307Z,101947.91
2018-05-11T11:54:49.926Z,101951.01
2018-05-11T11:57:17.563Z,101949.30
2018-05-11T11:59:45.388Z,101941.87
2018-05-11T12:02:13.063Z,101942.77
2018-05-11T12:04:40.681Z,101940.59
2018-05-11T12:07:08.323Z,101940.63
2018-05-11T12:09:35.942Z,101941.95
2018-05-11T12:12:03.606Z,101941.98
2018-05-11T12:14:31.271Z,101939.36
2018-05-11T12:16:58.926Z,101944.20
2018-05-11T12:19:26.599Z,101944.21
2018-05-11T12:21:54.216Z,101940.73
2018-05-11T12:24:21.923Z,101942.94
2018-05-11T12:26:49.540Z,101942.50
2018-05-11T12:29:17.183Z,101947.76
2018-05-11T12:31:44.803Z,101945.61
2018-05-11T12:34:12.447Z,101951.29
2018-05-11T12:36:40.078Z,101942.99
2018-05-11T12:39:07.715Z,101951.30
2018-05-11T12:41:35.351Z,101951.38
2018-05-11T12:44:02.987Z,101951.02
2018-05-11T12:46:30.752Z,101944.53
2018-05-11T12:48:58.346Z,101948.94
2018-05-11T12:51:25.999Z,101950.27
2018-05-11T12:53:53.639Z,101944.59
2018-05-11T12:56:21.263Z,101938.94
2018-05-11T12:58:48.904Z,101944.63
2018-05-11T13:01:16.519Z,101930.22
2018-05-11T13:03:44.164Z,101938.53
2018-05-11T13:06:11.778Z,101929.32
2018-05-11T13:08:39.415Z,101928.87
2018-05-11T13:11:07.081Z,101929.29
2018-05-11T13:13:34.722Z,101923.12
2018-05-11T13:16:02.339Z,101924.42
2018-05-11T13:18:30.086Z,101924.42
2018-05-11T13:20:57.702Z,101924.00
2018-05-11T13:23:25.340Z,101924.47
2018-05-11T13:25:52.963Z,101931.05
2018-05-11T13:28:20.603Z,101920.95
2018-05-11T13:30:48.222Z,101921.83
2018-05-11T13:33:15.883Z,101927.55
2018-05-11T13:35:43.511Z,101937.63
2018-05-11T13:38:11.130Z,101930.20
2018-05-11T13:40:38.839Z,101935.03
2018-05-11T13:43:06.459Z,101930.66
2018-05-11T13:45:34.099Z,101933.69
2018-05-11T13:48:01.711Z,101934.11
2018-05-11T13:50:29.355Z,101941.56
2018-05-11T13:52:57.006Z,101938.94
2018-05-11T13:55:24.643Z,101938.51
2018-05-11T13:57:52.267Z,101938.94
2018-05-11T14:00:19.936Z,101938.91
2018-05-11T14:02:47.551Z,101939.34
2018-05-11T14:05:15.259Z,101938.47
2018-05-11T14:07:42.875Z,101936.27
2018-05-11T14:10:10.592Z,101935.84
2018-05-11T14:12:38.247Z,101938.42
2018-05-11T14:15:05.917Z,101939.73
2018-05-11T14:17:33.576Z,101938.44
2018-05-11T14:20:01.216Z,101931.87
2018-05-11T14:22:28.836Z,101934.48
2018-05-11T14:24:56.513Z,101927.52
2018-05-11T14:27:24.130Z,101926.64
2018-05-11T14:29:51.772Z,101928.84
2018-05-11T14:32:19.395Z,101926.22
2018-05-11T14:34:47.031Z,101916.61
2018-05-11T14:37:14.667Z,101915.70
2018-05-11T14:39:42.308Z,101914.44
2018-05-11T14:42:09.935Z,101920.11
2018-05-11T14:44:37.574Z,101913.09
2018-05-11T14:47:05.195Z,101914.41
2018-05-11T14:49:32.880Z,101907.80
2018-05-11T14:52:00.492Z,101910.84
2018-05-11T14:54:28.111Z,101915.20
2018-05-11T14:56:55.769Z,101916.50
2018-05-11T14:59:23.519Z,101909.02
2018-05-11T15:01:51.158Z,101907.68
2018-05-11T15:04:18.783Z,101911.62
2018-05-11T15:06:46.515Z,101908.98
2018-05-11T15:09:14.175Z,101910.27
2018-05-11T15:11:41.811Z,101905.44
2018-05-11T15:14:09.436Z,101904.95
2018-05-11T15:16:37.076Z,101898.78
2018-05-11T15:19:04.699Z,101899.19
2018-05-11T15:21:32.383Z,101895.27
2018-05-11T15:23:59.998Z,101898.33
2018-05-11T15:26:27.645Z,101899.62
2018-05-11T15:28:55.370Z,101891.30
2018-05-11T15:31:23.022Z,101889.57
2018-05-11T15:33:50.723Z,101886.48
2018-05-11T15:36:18.467Z,101890.44
2018-05-11T15:38:46.082Z,101891.77
2018-05-11T15:41:13.715Z,101886.93
2018-05-11T15:43:41.348Z,101883.89
2018-05-11T15:46:09.015Z,101885.21
2018-05-11T15:48:36.635Z,101886.56
2018-05-11T15:51:04.335Z,101887.89
2018-05-11T15:53:32.000Z,101881.72
2018-05-11T15:55:59.663Z,101877.77
2018-05-11T15:58:27.327Z,101881.23
2018-05-11T16:00:55.103Z,101874.17
2018-05-11T16:03:22.751Z,101873.77
2018-05-11T16:05:50.442Z,101872.01
2018-05-11T16:08:18.096Z,101874.66
2018-05-11T16:10:45.744Z,101875.08
2018-05-11T16:13:13.400Z,101877.28
2018-05-11T16:15:41.019Z,101876.00
2018-05-11T16:18:14.618Z,101873.81
2018-05-11T16:20:42.331Z,101868.18
2018-05-11T16:23:09.991Z,101879.12
2018-05-11T16:25:37.651Z,101869.08
2018-05-11T16:28:05.315Z,101874.39
2018-05-11T16:30:32.931Z,101873.99
2018-05-11T16:33:00.635Z,101874.02
2018-05-11T16:35:28.251Z,101872.70
2018-05-11T16:37:55.890Z,101868.34
2018-05-11T16:40:23.546Z,101871.84
2018-05-11T16:42:51.169Z,101870.97
2018-05-11T16:45:18.846Z,101865.24
2018-05-11T16:47:46.512Z,101865.62
2018-05-11T16:50:14.126Z,101858.09
2018-05-11T16:52:41.764Z,101857.94
2018-05-11T16:55:09.377Z,101859.50
2018-05-11T16:57:37.023Z,101857.05
2018-05-11T17:00:04.641Z,101856.45
2018-05-11T17:02:32.275Z,101858.94
2018-05-11T17:04:59.940Z,101853.55
2018-05-11T17:07:27.611Z,101854.77
2018-05-11T17:09:55.230Z,101853.86
2018-05-11T17:12:22.931Z,101854.27
2018-05-11T17:14:50.543Z,101848.80
2018-05-11T17:17:18.183Z,101848.02
2018-05-11T17:19:45.819Z,101852.07
2018-05-11T17:22:13.436Z,101847.41
2018-05-11T17:24:41.070Z,101850.19
2018-05-11T17:27:08.699Z,101854.72
2018-05-11T17:29:36.340Z,101852.25
2018-05-11T17:32:03.960Z,101852.83
2018-05-11T17:34:31.598Z,101860.37
2018-05-11T17:36:59.211Z,101856.92
2018-05-11T17:39:26.855Z,101859.19
2018-05-11T17:44:37.909Z,101863.16
2018-05-11T17:47:05.535Z,101863.17
2018-05-11T17:49:33.223Z,101858.35
2018-05-11T17:52:00.848Z,101861.83
2018-05-11T17:54:28.490Z,101867.06
2018-05-11T17:56:56.299Z,101868.38
2018-05-11T17:59:23.875Z,101875.36
2018-05-11T18:01:51.491Z,101877.95
2018-05-11T18:04:19.131Z,101879.64
2018-05-11T18:06:46.864Z,101878.73
2018-05-11T18:09:14.528Z,101883.95
2018-05-11T18:11:42.186Z,101880.00
2018-05-11T18:14:09.823Z,101881.30
2018-05-11T18:16:37.443Z,101878.22
2018-05-11T18:19:05.260Z,101873.80
2018-05-11T18:21:32.834Z,101873.33
2018-05-11T18:24:00.481Z,101877.22
2018-05-11T18:26:28.126Z,101880.26
2018-05-11T18:28:55.775Z,101880.67
2018-05-11T18:31:23.395Z,101877.14
2018-05-11T18:33:51.119Z,101884.08
2018-05-11T18:36:18.745Z,101883.61
2018-05-11T18:38:46.388Z,101881.80
2018-05-11T18:41:14.036Z,101884.37
2018-05-11T18:43:41.654Z,101896.09
2018-05-11T18:46:09.292Z,101892.11
2018-05-11T18:48:37.023Z,101899.05
2018-05-11T18:51:04.662Z,101907.74
2018-05-11T18:53:32.554Z,101911.63
2018-05-11T18:55:59.955Z,101911.15
2018-05-11T18:58:27.573Z,101909.36
2018-05-11T19:00:55.223Z,101918.89
2018-05-11T19:03:22.851Z,101914.91
2018-05-11T19:05:50.497Z,101921.84
2018-05-11T19:08:18.218Z,101920.48
2018-05-11T19:10:45.859Z,101932.19
2018-05-11T19:13:13.479Z,101927.77
2018-05-11T19:15:41.211Z,101930.73
2018-05-11T19:18:08.826Z,101929.80
2018-05-11T19:20:36.485Z,101937.16
2018-05-11T19:23:04.106Z,101938.87
2018-05-11T19:25:31.855Z,101941.03
2018-05-11T19:27:59.472Z,101944.92
2018-05-11T19:30:27.111Z,101943.55
2018-05-11T19:32:54.724Z,101943.48
2018-05-11T19:35:22.375Z,101948.16
2018-05-11T19:37:50.006Z,101951.14
2018-05-11T19:40:17.671Z,101956.30
2018-05-11T19:42:45.287Z,101957.50
2018-05-11T19:45:12.951Z,101955.66
2018-05-11T19:47:40.607Z,101957.33
2018-05-11T19:50:08.242Z,101954.20
2018-05-11T19:52:35.939Z,101954.12
2018-05-11T19:55:03.579Z,101964.58
2018-05-11T19:57:31.215Z,101960.16
2018-05-11T19:59:58.830Z,101964.03
2018-05-11T20:02:26.471Z,101967.52
2018-05-11T20:04:54.150Z,101963.56
2018-05-11T20:07:21.795Z,101960.08
2018-05-11T20:09:49.471Z,101963.59
2018-05-11T20:12:17.116Z,101960.15
2018-05-11T20:14:44.795Z,101964.51
2018-05-11T20:17:12.459Z,101957.97
2018-05-11T20:19:40.080Z,101961.06
2018-05-11T20:22:07.787Z,101956.34
2018-05-11T20:24:35.399Z,101956.34
2018-05-11T20:27:03.112Z,101949.41
2018-05-11T20:29:30.770Z,101953.77
2018-05-11T20:31:58.419Z,101949.81
2018-05-11T20:34:26.099Z,101948.03
2018-05-11T20:36:53.739Z,101952.82
2018-05-11T20:39:21.423Z,101958.05
2018-05-11T20:41:49.088Z,101959.80
2018-05-11T20:44:16.709Z,101958.48
2018-05-11T20:46:44.406Z,101951.91
2018-05-11T20:49:12.023Z,101954.48
2018-05-11T20:51:39.737Z,101951.83
2018-05-11T20:54:07.356Z,101958.30
2018-05-11T20:56:34.995Z,101960.03
2018-05-11T20:59:02.719Z,101967.44
2018-05-11T21:01:30.383Z,101963.95
2018-05-11T21:03:57.999Z,101974.89
2018-05-11T21:06:25.707Z,101966.21
2018-05-11T21:08:53.323Z,101964.94
2018-05-11T21:11:20.948Z,101966.29
2018-05-11T21:13:48.588Z,101967.23
2018-05-11T21:16:16.207Z,101969.45
2018-05-11T21:18:43.852Z,101968.19
2018-05-11T21:21:11.478Z,101969.09
2018-05-11T21:23:39.120Z,101969.13
2018-05-11T21:26:06.735Z,101967.45
2018-05-11T21:28:34.463Z,101969.67
2018-05-11T21:31:02.129Z,101966.63
2018-05-11T21:33:29.744Z,101971.48
2018-05-11T21:35:57.383Z,101972.83
2018-05-11T21:38:25.023Z,101972.86
2018-05-11T21:40:52.657Z,101970.28
2018-05-11T21:43:20.299Z,101969.45
2018-05-11T21:45:47.915Z,101964.69
2018-05-11T21:48:15.663Z,101966.90
2018-05-11T21:50:43.312Z,101964.78
2018-05-11T21:53:10.988Z,101965.69
2018-05-11T21:55:38.598Z,101965.29
2018-05-11T21:58:06.311Z,101966.59
2018-05-11T22:00:33.927Z,101960.92
2018-05-11T22:03:01.567Z,101956.57
2018-05-11T22:05:29.271Z,101949.59
2018-05-11T22:07:56.865Z,101952.64
2018-05-11T22:10:24.489Z,101948.28
2018-05-11T22:12:52.127Z,101947.81
2018-05-11T22:15:19.744Z,101949.59
2018-05-11T22:17:47.398Z,101947.41
2018-05-11T22:20:15.076Z,101945.70
2018-05-11T22:22:42.832Z,101938.75
2018-05-11T22:25:10.591Z,101937.88
2018-05-11T22:27:38.207Z,101937.91
2018-05-11T22:30:05.855Z,101935.77
2018-05-11T22:32:33.474Z,101934.02
2018-05-11T22:35:01.147Z,101933.61
2018-05-11T22:37:28.806Z,101936.26
2018-05-11T22:39:56.471Z,101933.20
2018-05-11T22:42:24.135Z,101931.46
2018-05-11T22:44:51.804Z,101935.83
2018-05-11T22:47:19.459Z,101933.23
2018-05-11T22:49:47.119Z,101933.67
2018-05-11T22:52:14.787Z,101935.45
2018-05-11T22:54:42.427Z,101934.14
2018-05-11T22:57:10.055Z,101931.95
2018-05-11T22:59:37.697Z,101924.52
2018-05-11T23:02:05.316Z,101920.59
2018-05-11T23:04:32.959Z,101924.08
2018-05-11T23:07:00.655Z,101927.97
2018-05-11T23:09:28.319Z,101928.41
2018-05-11T23:11:55.988Z,101926.20
2018-05-11T23:14:23.643Z,101916.61
2018-05-11T23:16:51.259Z,101917.48
2018-05-11T23:19:18.903Z,101921.80
2018-05-11T23:21:46.518Z,101924.42
2018-05-11T23:24:14.163Z,101921.80
2018-05-11T23:26:41.855Z,101923.98
2018-05-11T23:29:09.523Z,101925.33
2018-05-11T23:31:37.179Z,101916.17
2018-05-11T23:34:04.840Z,101917.04
2018-05-11T23:36:32.503Z,101914.86
2018-05-11T23:39:00.118Z,101916.16
2018-05-11T23:41:27.827Z,101909.22
2018-05-11T23:43:55.442Z,101912.70
2018-05-11T23:46:23.084Z,101907.47
2018-05-11T23:48:50.814Z,101907.91
2018-05-11T23:51:18.579Z,101909.66
2018-05-11T23:53:46.195Z,101905.27
2018-05-11T23:56:13.903Z,101905.70
2018-05-11T23:58:41.519Z,101905.70
